Silver, TX

12:36 AM CDT on September 24, 2014 (GMT -0500)
WT_Meso 7NW San Angelo, TX | Change Station
CLOSE
Current Station
Personal Weather Station
Location: San Angelo, TX
Elevation: 1957 ft
Nearby Weather Stations

Elev 1957 ft 31.54 °N, 100.51 °W | Updated 41 minutes ago

Partly Cloudy
Partly Cloudy
74 °F
Feels Like 77 °F
N
8
Wind Variable Wind from ESE
Gusts 12.0 mph

Today
High -- | Low -- °F
--% Chance of Precip.
Yesterday
High -- | Low -- °F
Precip. -- in
7:31 AM 7:35 PM
Waning Crescent, 0% visible
Pressure 30.04 in
Visibility 10.0 miles
Clouds Clear
Heat Index 77 °F
Dew Point 58 °F
Humidity 58%
Rainfall -999.00 in
Snow Depth Not available.
UV 0 out of 12
Pollen 9.30 out of 12
Air Quality Not available.
Flu Activity Not available.
METAR KSJT 240451Z AUTO 11003KT 10SM CLR 23/17 A3011 RMK AO2 SLP172 T02280167

More Conditions Fewer Conditions

Pressure 30.04 in
Visibility 10.0 miles
Clouds Clear
Heat Index 77 °F
Dew Point 58 °F
Humidity 58%
Rainfall -999.00 in
Snow Depth Not available.
UV 0 out of 12
Pollen 9.30 out of 12
Air Quality Not available.
Flu Activity Not available.
METAR KSJT 240451Z AUTO 11003KT 10SM CLR 23/17 A3011 RMK AO2 SLP172 T02280167

More Conditions Fewer Conditions

10-Day Weather Forecast

Almanac

Astronomy

Sep. 24, 2014 Rise Set
Actual Time 7:31 AM CDT 7:35 PM CDT
Civil Twilight 7:07 AM CDT 8:00 PM CDT
Nautical Twilight 6:38 AM CDT 8:28 PM CDT
Astronomical Twilight 6:10 AM CDT 8:57 PM CDT
Moon 7:51 AM CDT 7:51 PM CDT
Length of Visible Light 12h 53m
Length of Day
12h 04m
Tomorrow will be 1m 56s shorter.
Waning Crescent, 0% of the Moon is Illuminated
Today
Waning Crescent
Sep 24
New
Oct 1
First Quarter
Oct 8
Full
Oct 15
Last Quarter

Today's Extremes

State Highs State Lows

Community

WunderPhotos

Upload Photos

1,755,891 photos uploaded!

WunderBlogs® & News

Nearby

Snow Depth

Station Depth Elevation
No new snow has been reported.

Earthquake Activity

City Distance Mag. Time & Date
No recent earthquake activity has been reported nearby.
Minimum magnitude displayed is 2.5.

Coastal Water Temperatures

Place Temperature
No Stations Reporting

Nearby Weather Stations